Time;durP1;ratioP1;P1;durP2;ratioP2;P2;SDS_P1;SDS_P2;PMS_P1;PMS_P2;Temp;Humidity;BMP_temperature;BMP_pressure;BME280_temperature;BME280_humidity;BME280_pressure;Samples;Min_cycle;Max_cycle;Signal;HPM_P1;HPM_P2
2023/06/01 00:01:58;;;;;;;11.18;4.22;;;;;;;17.46;47.73;98931.56;5020915;28;20060;-68
2023/06/01 00:04:24;;;;;;;10.73;4.22;;;;;;;17.75;46.74;98934.41;5004432;28;20506;-68
2023/06/01 00:06:50;;;;;;;13.60;4.40;;;;;;;17.64;46.81;98934.28;5020818;28;20048;-68
2023/06/01 00:09:17;;;;;;;13.35;4.70;;;;;;;17.69;46.48;98931.78;5037128;28;20069;-68
2023/06/01 00:11:43;;;;;;;10.10;4.18;;;;;;;17.77;46.33;98928.81;5020688;28;20044;-68
2023/06/01 00:14:09;;;;;;;8.80;4.32;;;;;;;17.68;46.28;98920.22;5004741;28;20048;-68
2023/06/01 00:16:36;;;;;;;7.88;4.60;;;;;;;17.64;46.27;98926.25;5020867;28;20037;-67
2023/06/01 00:19:02;;;;;;;7.82;3.75;;;;;;;17.68;46.80;98925.56;5020143;28;20049;-68
2023/06/01 00:21:31;;;;;;;10.82;3.75;;;;;;;17.66;46.71;98930.38;5004483;28;20044;-68
2023/06/01 00:23:57;;;;;;;12.95;4.15;;;;;;;17.59;46.67;98928.78;5037195;28;20076;-68
2023/06/01 00:26:23;;;;;;;9.00;3.95;;;;;;;17.54;46.64;98932.13;5020326;28;20136;-68
2023/06/01 00:28:51;;;;;;;8.93;4.70;;;;;;;17.50;46.38;98925.53;5004392;28;20044;-68
2023/06/01 00:31:18;;;;;;;7.05;4.28;;;;;;;17.38;46.67;98915.69;5020586;28;20109;-68
2023/06/01 00:33:44;;;;;;;9.65;4.13;;;;;;;17.29;46.66;98927.75;5037194;28;20057;-68
2023/06/01 00:36:10;;;;;;;8.05;3.67;;;;;;;17.33;46.69;98932.47;5004069;28;20052;-68
2023/06/01 00:38:36;;;;;;;9.27;3.92;;;;;;;17.31;46.27;98931.03;5019389;28;20049;-67
2023/06/01 00:41:01;;;;;;;10.07;3.78;;;;;;;17.18;46.37;98936.50;5019775;28;20439;-67
2023/06/01 00:43:28;;;;;;;11.00;4.53;;;;;;;17.36;46.38;98920.47;5036731;28;20093;-67
2023/06/01 00:45:55;;;;;;;8.80;3.85;;;;;;;17.23;46.19;98928.63;5020056;28;20072;-68
2023/06/01 00:48:23;;;;;;;6.68;3.70;;;;;;;17.16;46.39;98922.47;5020210;28;20045;-67
2023/06/01 00:50:50;;;;;;;7.72;3.30;;;;;;;17.30;46.24;98924.84;5036900;28;20045;-67
2023/06/01 00:53:17;;;;;;;13.18;3.70;;;;;;;17.48;46.07;98926.81;5019928;28;20048;-68
2023/06/01 00:55:45;;;;;;;5.38;3.38;;;;;;;17.28;46.05;98918.06;5036660;28;20045;-67
2023/06/01 00:58:15;;;;;;;7.00;3.42;;;;;;;17.30;46.77;98918.66;5036628;28;20052;-67
2023/06/01 01:00:41;;;;;;;14.82;5.32;;;;;;;16.96;47.22;98929.84;5020000;28;20083;-67
2023/06/01 01:03:08;;;;;;;9.02;3.72;;;;;;;17.13;46.42;98917.56;5019822;28;20520;-67
2023/06/01 01:05:37;;;;;;;9.48;3.85;;;;;;;17.14;46.43;98911.97;5019540;28;20491;-67
2023/06/01 01:08:20;;;;;;;6.30;3.65;;;;;;;17.37;46.60;98909.53;5036182;28;20045;-67
2023/06/01 01:11:07;;;;;;;8.55;3.80;;;;;;;17.48;46.25;98913.38;5019627;28;20491;-68
2023/06/01 01:13:39;;;;;;;7.38;3.67;;;;;;;17.46;46.21;98920.81;5006570;28;20947;-67
2023/06/01 01:16:20;;;;;;;6.10;3.53;;;;;;;17.08;45.53;98914.69;5052587;28;20477;-68
2023/06/01 01:18:54;;;;;;;7.43;3.58;;;;;;;17.56;45.34;98915.81;5019433;28;20040;-67
2023/06/01 01:21:27;;;;;;;6.60;3.83;;;;;;;17.46;45.33;98915.47;5035931;28;20053;-67
2023/06/01 01:24:09;;;;;;;11.02;3.40;;;;;;;17.57;45.27;98915.59;5020072;28;20044;-67
2023/06/01 01:26:55;;;;;;;13.07;3.85;;;;;;;17.17;45.13;98918.75;5035638;28;20068;-67
2023/06/01 01:29:23;;;;;;;11.27;3.13;;;;;;;17.15;46.23;98915.44;5035236;28;20049;-67
2023/06/01 01:31:51;;;;;;;7.97;3.08;;;;;;;17.30;45.37;98913.31;5018985;28;20102;-67
2023/06/01 01:34:18;;;;;;;4.90;3.15;;;;;;;17.24;45.60;98906.09;5035911;28;20048;-67
2023/06/01 01:36:44;;;;;;;7.72;3.17;;;;;;;17.03;45.63;98906.47;5019317;28;20626;-67
2023/06/01 01:39:09;;;;;;;7.28;3.28;;;;;;;16.83;46.03;98907.44;5019089;28;20045;-67
2023/06/01 01:41:35;;;;;;;8.82;3.78;;;;;;;16.83;45.80;98903.91;5002488;28;20051;-66
2023/06/01 01:44:02;;;;;;;6.15;3.28;;;;;;;17.01;45.88;98916.56;5035278;28;20044;-66
2023/06/01 01:46:30;;;;;;;6.78;2.90;;;;;;;17.10;46.12;98912.63;5018799;28;20118;-66
2023/06/01 01:49:05;;;;;;;7.35;3.50;;;;;;;17.21;45.97;98912.72;5017864;28;20044;-67
2023/06/01 01:52:13;;;;;;;9.73;3.35;;;;;;;17.23;45.97;98907.16;5035304;28;20037;-67
2023/06/01 01:54:42;;;;;;;5.88;3.55;;;;;;;17.02;46.22;98905.63;5034700;28;20084;-67
2023/06/01 01:57:08;;;;;;;6.45;2.90;;;;;;;16.70;45.95;98901.28;5018698;28;20484;-67
2023/06/01 01:59:35;;;;;;;5.53;3.10;;;;;;;16.98;45.87;98906.28;5002280;28;20044;-67
2023/06/01 02:02:02;;;;;;;5.38;3.22;;;;;;;17.08;45.63;98901.28;5018397;28;20041;-68
2023/06/01 02:04:30;;;;;;;4.15;2.78;;;;;;;16.96;45.49;98911.88;5018777;28;20514;-67
2023/06/01 02:06:57;;;;;;;7.90;3.30;;;;;;;17.08;45.10;98910.16;5002456;28;20060;-67
2023/06/01 02:09:24;;;;;;;7.65;3.40;;;;;;;17.04;45.27;98913.47;5001947;28;20049;-67
2023/06/01 02:11:50;;;;;;;4.97;3.10;;;;;;;17.03;44.83;98917.19;5017401;28;20063;-67
2023/06/01 02:14:17;;;;;;;6.85;3.28;;;;;;;16.97;44.93;98918.91;5002074;28;20135;-68
2023/06/01 02:16:44;;;;;;;9.98;4.03;;;;;;;16.76;45.60;98919.19;5018598;28;20135;-65
2023/06/01 02:19:10;;;;;;;6.78;3.42;;;;;;;16.86;45.59;98916.91;5034492;28;20071;-65
2023/06/01 02:21:37;;;;;;;9.77;3.50;;;;;;;17.34;44.32;98920.69;5018110;28;20041;-65
2023/06/01 02:24:07;;;;;;;4.97;3.38;;;;;;;17.49;43.56;98931.97;5035032;28;20472;-66
2023/06/01 02:26:33;;;;;;;6.47;3.20;;;;;;;17.47;43.68;98922.47;5034810;28;20056;-66
2023/06/01 02:28:59;;;;;;;5.03;3.30;;;;;;;17.39;43.77;98933.47;5018085;28;20526;-66
2023/06/01 02:31:25;;;;;;;7.53;3.00;;;;;;;17.21;43.70;98936.06;5018259;28;20118;-66
2023/06/01 02:33:51;;;;;;;7.45;2.97;;;;;;;17.37;43.31;98941.72;5018002;28;20072;-66
2023/06/01 02:36:19;;;;;;;6.63;3.40;;;;;;;17.27;43.18;98948.59;5034678;28;20052;-67
2023/06/01 02:38:46;;;;;;;5.45;2.95;;;;;;;17.18;43.56;98947.22;5018246;28;20045;-66
2023/06/01 02:41:13;;;;;;;7.72;3.30;;;;;;;17.16;43.62;98949.31;5018401;28;20068;-66
2023/06/01 02:43:40;;;;;;;7.00;2.85;;;;;;;17.17;43.59;98945.59;5001650;28;20404;-66
2023/06/01 02:46:06;;;;;;;7.63;2.97;;;;;;;17.31;43.21;98957.88;5034225;28;20037;-66
2023/06/01 02:48:36;;;;;;;5.75;3.05;;;;;;;17.28;43.40;98958.31;5018186;28;20041;-65
2023/06/01 02:51:02;;;;;;;4.68;2.97;;;;;;;17.41;42.98;98959.03;5034200;28;20064;-66
2023/06/01 02:53:28;;;;;;;6.85;2.58;;;;;;;17.43;42.74;98967.69;5017707;28;20082;-67
2023/06/01 02:55:55;;;;;;;10.20;2.92;;;;;;;17.51;42.45;98967.47;5002357;28;20063;-67
2023/06/01 02:58:41;;;;;;;7.53;2.95;;;;;;;17.50;42.37;98957.75;5020832;28;20045;-67
2023/06/01 03:01:19;;;;;;;4.07;2.72;;;;;;;17.43;42.35;98961.50;5019416;28;20056;-68
2023/06/01 03:03:46;;;;;;;4.03;2.92;;;;;;;17.50;42.51;98962.28;5002241;28;20044;-67
2023/06/01 03:06:13;;;;;;;6.43;3.13;;;;;;;17.55;42.22;98960.63;5018490;28;20052;-65
2023/06/01 03:08:58;;;;;;;11.27;2.95;;;;;;;17.57;42.57;98957.72;5020261;28;20527;-66
2023/06/01 03:11:44;;;;;;;5.55;3.75;;;;;;;17.50;42.53;98956.91;5020256;28;20048;-66
2023/06/01 03:14:10;;;;;;;11.15;3.78;;;;;;;17.48;42.51;98959.81;5018383;28;20041;-66
2023/06/01 03:16:36;;;;;;;10.05;4.05;;;;;;;17.64;42.86;98959.28;5034692;28;20045;-67
2023/06/01 03:19:16;;;;;;;11.38;3.90;;;;;;;17.63;42.64;98956.84;5020011;28;20084;-66
2023/06/01 03:21:46;;;;;;;9.27;4.43;;;;;;;17.59;42.64;98961.00;5012628;28;20483;-66
2023/06/01 03:24:13;;;;;;;9.27;4.20;;;;;;;17.69;42.44;98962.16;5002278;28;20068;-66
2023/06/01 03:26:39;;;;;;;10.30;3.80;;;;;;;17.80;42.30;98961.44;5020339;28;20040;-67
2023/06/01 03:29:05;;;;;;;7.32;3.70;;;;;;;18.02;42.30;98961.88;5004068;28;20113;-67
2023/06/01 03:31:37;;;;;;;11.85;3.90;;;;;;;17.91;42.24;98967.97;5036989;28;20136;-68
2023/06/01 03:34:03;;;;;;;10.15;4.18;;;;;;;17.93;42.13;98966.69;5004074;28;20383;-68
2023/06/01 03:36:29;;;;;;;11.68;4.40;;;;;;;18.06;42.28;98969.25;5013725;28;20084;-68
2023/06/01 03:38:55;;;;;;;8.55;4.03;;;;;;;18.11;42.16;98966.69;5017841;28;20068;-67
2023/06/01 03:41:27;;;;;;;7.75;3.45;;;;;;;18.20;41.82;98967.25;5021114;28;20044;-67
2023/06/01 03:43:53;;;;;;;14.90;4.50;;;;;;;18.14;41.74;98963.56;5035794;28;20037;-66
2023/06/01 03:46:20;;;;;;;13.73;5.20;;;;;;;18.25;42.46;98962.84;5033087;28;20504;-66
2023/06/01 03:48:46;;;;;;;10.60;4.43;;;;;;;18.38;41.96;98954.66;5052792;28;20135;-66
2023/06/01 03:51:14;;;;;;;13.90;4.57;;;;;;;18.50;42.04;98960.09;5020601;28;20106;-68
2023/06/01 03:53:40;;;;;;;13.80;4.55;;;;;;;18.54;42.17;98960.47;5022109;28;20195;-67
2023/06/01 03:56:06;;;;;;;13.45;4.63;;;;;;;18.40;42.43;98957.13;5035568;28;20123;-68
2023/06/01 03:58:44;;;;;;;13.27;4.85;;;;;;;18.88;42.38;98960.66;5053198;28;20079;-69
2023/06/01 04:01:20;;;;;;;13.77;4.28;;;;;;;18.63;42.16;98956.44;5035790;28;20481;-68
2023/06/01 04:03:50;;;;;;;9.80;4.50;;;;;;;18.65;42.27;98959.72;5036384;28;20044;-68
2023/06/01 04:06:17;;;;;;;13.32;4.88;;;;;;;18.80;42.09;98958.28;5052696;28;20111;-68
2023/06/01 04:08:50;;;;;;;13.85;4.57;;;;;;;18.88;42.13;98952.56;5011599;28;20048;-67
2023/06/01 04:11:17;;;;;;;8.35;4.30;;;;;;;19.03;41.76;98952.19;5050234;28;20040;-67
2023/06/01 04:13:46;;;;;;;10.75;4.90;;;;;;;19.21;42.57;98960.19;5021471;28;20479;-67
2023/06/01 04:16:12;;;;;;;9.95;4.90;;;;;;;18.95;42.83;98964.09;5022281;28;20498;-66
2023/06/01 04:18:40;;;;;;;10.43;5.00;;;;;;;19.04;42.50;98954.66;5038533;28;20045;-66
2023/06/01 04:21:09;;;;;;;14.40;5.07;;;;;;;19.16;42.54;98955.50;5037478;28;20059;-67
2023/06/01 04:23:37;;;;;;;9.43;4.72;;;;;;;19.14;42.71;98963.00;5053630;28;20044;-67
2023/06/01 04:26:04;;;;;;;13.05;4.72;;;;;;;19.27;42.48;98959.28;5021990;28;20052;-67
2023/06/01 04:28:32;;;;;;;18.80;5.13;;;;;;;19.41;43.20;98969.66;5038170;28;20490;-67
2023/06/01 04:30:58;;;;;;;12.50;4.95;;;;;;;19.41;42.71;98964.28;5038683;28;20045;-66
2023/06/01 04:33:25;;;;;;;9.60;4.47;;;;;;;19.65;42.09;98959.75;5038412;28;20387;-66
2023/06/01 04:35:55;;;;;;;14.18;4.60;;;;;;;19.59;42.02;98958.78;4995189;28;20173;-66
2023/06/01 04:38:24;;;;;;;9.23;4.30;;;;;;;19.77;42.20;98963.28;4963414;28;20085;-70
2023/06/01 04:40:53;;;;;;;12.30;4.20;;;;;;;19.84;41.94;98959.41;4963301;28;20061;-70
2023/06/01 04:43:20;;;;;;;10.52;4.60;;;;;;;20.06;42.03;98954.25;4995419;28;20552;-70
2023/06/01 04:45:47;;;;;;;13.95;4.65;;;;;;;20.14;41.93;98959.34;4995522;28;20064;-69
2023/06/01 04:48:16;;;;;;;10.60;4.93;;;;;;;20.27;41.73;98952.84;4962473;28;20077;-69
2023/06/01 04:50:52;;;;;;;10.65;4.75;;;;;;;20.28;41.69;98959.91;4976777;28;20054;-69
2023/06/01 04:53:19;;;;;;;17.85;4.82;;;;;;;20.48;41.37;98958.44;4979180;28;20367;-69
2023/06/01 04:55:46;;;;;;;14.60;4.53;;;;;;;20.73;41.16;98958.97;4978786;28;20049;-70
2023/06/01 04:58:12;;;;;;;8.73;4.30;;;;;;;20.78;40.90;98951.00;4962404;28;20128;-69
2023/06/01 05:00:39;;;;;;;10.23;4.22;;;;;;;20.83;40.77;98947.56;4962040;28;20061;-69
2023/06/01 05:03:08;;;;;;;10.80;4.47;;;;;;;21.14;40.51;98950.63;4963160;28;20117;-68
2023/06/01 05:05:34;;;;;;;12.65;4.20;;;;;;;21.03;40.40;98946.13;4994651;28;20050;-69
2023/06/01 05:08:02;;;;;;;12.27;3.80;;;;;;;21.21;40.07;98956.72;4989819;28;20144;-69
2023/06/01 05:10:29;;;;;;;13.32;4.05;;;;;;;21.57;39.79;98955.47;5038220;28;20073;-70
2023/06/01 05:12:56;;;;;;;8.98;4.15;;;;;;;21.62;39.12;98953.66;5020822;28;20040;-70
2023/06/01 05:15:22;;;;;;;13.93;4.40;;;;;;;21.71;39.33;98951.38;5020327;28;20083;-71
2023/06/01 05:17:50;;;;;;;13.23;4.18;;;;;;;21.91;39.06;98956.31;5036917;28;20080;-68
2023/06/01 05:20:18;;;;;;;6.35;3.75;;;;;;;21.89;39.04;98959.25;5005023;28;20131;-69
2023/06/01 05:22:51;;;;;;;7.53;4.00;;;;;;;21.91;39.06;98957.09;5021453;28;20044;-71
2023/06/01 05:25:21;;;;;;;9.20;4.10;;;;;;;22.30;38.80;98950.66;5037457;28;20149;-69
2023/06/01 05:27:53;;;;;;;10.00;3.80;;;;;;;22.30;38.04;98950.66;5030756;28;20053;-70
2023/06/01 05:30:19;;;;;;;10.82;3.72;;;;;;;22.39;37.87;98959.97;5013897;28;20243;-69
2023/06/01 05:32:47;;;;;;;8.77;3.70;;;;;;;22.33;36.84;98952.84;5015948;28;20404;-69
2023/06/01 05:35:17;;;;;;;10.77;3.90;;;;;;;22.35;36.46;98944.50;5013806;28;20053;-70
2023/06/01 05:37:43;;;;;;;15.57;3.90;;;;;;;22.60;36.82;98934.03;4997296;28;20053;-69
2023/06/01 05:40:09;;;;;;;12.52;3.85;;;;;;;22.89;35.87;98944.41;5013694;28;20156;-68
2023/06/01 05:42:36;;;;;;;13.27;3.78;;;;;;;23.04;35.98;98941.88;5013405;28;20045;-69
2023/06/01 05:45:02;;;;;;;8.00;3.60;;;;;;;23.34;35.14;98951.41;4988203;28;20397;-69
2023/06/01 05:47:30;;;;;;;9.55;3.55;;;;;;;23.33;35.39;98936.19;5001030;28;20049;-69
2023/06/01 05:49:56;;;;;;;5.15;2.90;;;;;;;23.74;33.90;98943.63;4975040;28;20041;-69
2023/06/01 05:52:22;;;;;;;8.88;2.63;;;;;;;23.78;33.91;98942.84;5012355;28;20049;-68
2023/06/01 05:54:53;;;;;;;17.92;3.17;;;;;;;23.94;34.01;98944.56;5012701;28;20045;-70
2023/06/01 05:57:20;;;;;;;;;;;;;;;24.63;32.66;98956.16;4996550;28;20528;-70
2023/06/01 05:59:46;;;;;;;7.35;2.75;;;;;;;24.27;33.11;98954.31;5030653;28;20363;-70
2023/06/01 06:02:16;;;;;;;6.97;2.83;;;;;;;24.66;33.26;98958.38;5017294;28;20040;-70
2023/06/01 06:04:43;;;;;;;4.47;2.58;;;;;;;24.49;31.91;98963.94;5033804;28;20392;-69
2023/06/01 06:07:10;;;;;;;5.13;2.00;;;;;;;24.53;30.58;98947.94;5034012;28;20045;-70
2023/06/01 06:09:35;;;;;;;11.02;2.30;;;;;;;24.63;30.54;98948.00;5033958;28;20033;-69
2023/06/01 06:12:02;;;;;;;9.25;1.75;;;;;;;24.77;29.79;98962.75;5049482;28;20048;-70
2023/06/01 06:14:28;;;;;;;8.32;1.75;;;;;;;24.95;28.68;98937.81;5017633;28;20127;-70
2023/06/01 06:16:54;;;;;;;4.43;1.73;;;;;;;24.92;28.65;98951.13;5033760;28;20127;-69
2023/06/01 06:19:19;;;;;;;2.72;1.52;;;;;;;24.89;29.26;98923.41;5019019;28;20073;-69
2023/06/01 06:21:45;;;;;;;7.13;1.90;;;;;;;25.27;28.54;98943.88;5037360;28;20041;-70
2023/06/01 06:24:11;;;;;;;6.13;1.67;;;;;;;25.46;27.92;98939.59;5070628;28;20383;-70
2023/06/01 06:26:37;;;;;;;9.45;1.90;;;;;;;25.63;27.90;98923.78;5053512;28;20051;-70
2023/06/01 06:29:03;;;;;;;6.95;1.70;;;;;;;25.48;27.63;98936.59;5053801;28;20059;-70
2023/06/01 06:31:29;;;;;;;5.22;2.25;;;;;;;25.90;28.25;98927.06;5053485;28;20090;-70
2023/06/01 06:33:55;;;;;;;4.57;1.60;;;;;;;26.02;27.34;98924.06;5020482;28;20044;-69
2023/06/01 06:36:21;;;;;;;3.55;1.73;;;;;;;26.41;27.51;98922.34;5053555;28;20120;-70
2023/06/01 06:38:47;;;;;;;4.35;1.75;;;;;;;26.38;26.85;98926.47;5053760;28;20764;-69
2023/06/01 06:41:13;;;;;;;8.05;1.60;;;;;;;26.44;26.63;98910.91;5053291;28;20829;-70
2023/06/01 06:43:39;;;;;;;2.70;1.50;;;;;;;26.47;26.67;98918.50;5036571;28;20068;-71
2023/06/01 06:46:05;;;;;;;7.93;2.10;;;;;;;26.48;26.06;98923.69;5053482;28;20036;-69
2023/06/01 06:48:31;;;;;;;6.15;1.60;;;;;;;26.64;25.99;98910.03;5036726;28;20399;-70
2023/06/01 06:50:57;;;;;;;5.82;1.65;;;;;;;26.61;24.95;98896.94;5053570;28;20047;-70
2023/06/01 06:53:22;;;;;;;4.20;1.67;;;;;;;26.66;24.47;98913.28;5053125;28;20127;-71
2023/06/01 06:55:48;;;;;;;4.97;1.50;;;;;;;26.67;25.22;98917.63;5020449;28;21097;-70
2023/06/01 06:58:15;;;;;;;5.57;1.70;;;;;;;27.28;24.55;98906.13;5036570;28;20238;-70
2023/06/01 07:00:41;;;;;;;2.35;1.70;;;;;;;27.11;24.83;98893.97;5052901;28;20126;-69
2023/06/01 07:03:08;;;;;;;4.40;1.70;;;;;;;27.23;24.83;98902.63;5053130;28;20119;-69
2023/06/01 07:05:35;;;;;;;2.42;1.55;;;;;;;27.70;24.35;98895.44;5053069;28;20052;-70
2023/06/01 07:08:01;;;;;;;5.60;1.50;;;;;;;27.59;24.02;98893.06;5052812;28;20044;-69
2023/06/01 07:10:27;;;;;;;6.35;1.80;;;;;;;27.52;24.64;98893.41;5036212;28;20063;-69
2023/06/01 07:12:53;;;;;;;3.05;1.70;;;;;;;28.36;24.77;98889.31;5051993;28;20036;-70
2023/06/01 07:15:18;;;;;;;4.35;1.50;;;;;;;28.68;22.88;98890.31;5070033;28;20070;-70
2023/06/01 07:17:44;;;;;;;4.72;1.90;;;;;;;28.73;22.42;98903.91;5052934;28;20110;-70
2023/06/01 07:20:11;;;;;;;3.95;1.42;;;;;;;28.58;22.15;98890.47;5032459;28;20067;-72
2023/06/01 07:22:38;;;;;;;4.88;1.50;;;;;;;28.81;22.18;98906.00;5032507;28;20114;-70
2023/06/01 07:25:05;;;;;;;6.47;1.67;;;;;;;28.86;22.06;98892.25;5049272;28;20543;-70
2023/06/01 07:27:35;;;;;;;8.43;1.98;;;;;;;29.58;21.77;98878.03;5049462;28;20068;-70
2023/06/01 07:30:05;;;;;;;3.47;1.70;;;;;;;30.28;20.85;98881.47;5017022;28;20037;-70
2023/06/01 07:32:32;;;;;;;4.60;1.80;;;;;;;30.42;19.72;98889.66;5017112;28;20138;-71
2023/06/01 07:34:59;;;;;;;3.22;1.38;;;;;;;31.26;19.06;98875.22;5016289;28;20088;-70
2023/06/01 07:37:26;;;;;;;6.50;1.42;;;;;;;32.31;19.02;98872.50;5016368;28;20134;-70
2023/06/01 07:39:54;;;;;;;5.35;1.58;;;;;;;32.54;18.46;98874.06;5049283;28;20561;-70
2023/06/01 07:42:20;;;;;;;6.13;2.10;;;;;;;34.57;17.61;98867.88;4992337;28;20457;-71
2023/06/01 07:44:47;;;;;;;11.27;2.05;;;;;;;35.71;16.24;98863.59;5008664;28;20050;-71
2023/06/01 07:47:13;;;;;;;2.35;1.17;;;;;;;36.10;15.00;98871.34;5009268;28;20057;-72
2023/06/01 07:49:39;;;;;;;3.28;1.40;;;;;;;36.97;13.96;98862.34;5012422;28;20046;-70
2023/06/01 07:52:06;;;;;;;6.10;1.80;;;;;;;37.65;14.15;98868.72;4973466;28;20157;-70
2023/06/01 07:54:36;;;;;;;7.88;1.30;;;;;;;37.48;12.96;98871.78;4973298;28;20051;-70
2023/06/01 07:57:04;;;;;;;5.15;1.42;;;;;;;36.84;13.47;98865.50;4957288;28;20058;-70
2023/06/01 07:59:31;;;;;;;3.05;1.33;;;;;;;36.91;13.24;98862.94;4957123;28;20043;-72
2023/06/01 08:01:58;;;;;;;8.07;1.60;;;;;;;36.75;12.78;98846.25;4957221;28;20114;-72
2023/06/01 08:04:26;;;;;;;3.90;1.50;;;;;;;36.69;13.44;98841.28;4973146;28;20058;-69
2023/06/01 08:06:55;;;;;;;11.48;1.73;;;;;;;36.95;13.41;98827.88;4941523;28;20462;-69
2023/06/01 08:09:23;;;;;;;4.75;1.38;;;;;;;37.28;13.16;98834.00;4973165;28;20053;-70
2023/06/01 08:11:50;;;;;;;7.70;1.50;;;;;;;37.47;12.39;98817.56;4941042;28;20171;-69
2023/06/01 08:14:18;;;;;;;2.10;1.58;;;;;;;36.65;12.90;98837.59;5008407;28;20433;-72
2023/06/01 08:16:45;;;;;;;2.25;1.58;;;;;;;37.23;13.26;98837.03;4998317;28;20045;-69
2023/06/01 08:19:11;;;;;;;4.78;1.60;;;;;;;34.37;13.70;98813.47;4980217;28;20139;-72
2023/06/01 08:21:37;;;;;;;2.80;1.45;;;;;;;35.78;13.58;98822.41;4995528;28;20076;-71
2023/06/01 08:24:03;;;;;;;5.43;1.42;;;;;;;36.22;13.43;98837.34;5003564;28;20129;-70
2023/06/01 08:26:29;;;;;;;5.38;1.88;;;;;;;36.76;13.36;98824.91;5032948;28;20057;-71
2023/06/01 08:28:55;;;;;;;5.28;1.67;;;;;;;36.94;12.54;98842.88;5032821;28;20080;-72
2023/06/01 08:31:23;;;;;;;9.63;1.52;;;;;;;37.20;12.75;98851.56;5033298;28;20072;-71
2023/06/01 08:33:51;;;;;;;5.50;1.60;;;;;;;36.72;12.99;98846.91;5032849;28;20095;-70
2023/06/01 08:36:18;;;;;;;7.50;1.35;;;;;;;35.92;13.23;98820.16;5033609;28;20045;-70
2023/06/01 08:38:45;;;;;;;4.90;1.40;;;;;;;36.64;12.88;98852.59;5033169;28;20073;-67
2023/06/01 08:41:23;;;;;;;3.83;1.50;;;;;;;38.08;12.27;98829.06;5032360;28;20049;-68
2023/06/01 08:43:55;;;;;;;5.70;1.60;;;;;;;38.65;12.21;98815.47;5016366;28;20450;-68
2023/06/01 08:46:22;;;;;;;3.20;1.60;;;;;;;38.04;12.06;98853.94;5016363;28;20042;-68
2023/06/01 08:48:53;;;;;;;8.25;2.13;;;;;;;38.62;11.45;98818.97;5016081;28;20049;-69
2023/06/01 08:51:21;;;;;;;6.00;1.50;;;;;;;39.13;11.47;98797.47;5032521;28;20319;-69
2023/06/01 08:53:49;;;;;;;4.40;1.60;;;;;;;38.74;11.21;98794.66;4995024;28;20057;-69
2023/06/01 08:56:15;;;;;;;9.65;1.42;;;;;;;38.05;11.90;98804.84;4978460;28;20054;-68
2023/06/01 08:58:42;;;;;;;4.80;1.33;;;;;;;38.93;10.98;98798.63;4962145;28;20045;-68
2023/06/01 09:01:08;;;;;;;6.45;1.88;;;;;;;39.06;11.69;98812.03;4994679;28;20061;-68
2023/06/01 09:03:34;;;;;;;6.20;1.40;;;;;;;39.76;10.92;98810.69;4962556;28;20428;-67
2023/06/01 09:06:00;;;;;;;5.55;1.90;;;;;;;40.65;10.08;98804.59;4962615;28;20034;-67
2023/06/01 09:08:26;;;;;;;4.15;1.40;;;;;;;41.35;9.54;98797.22;4962267;28;20089;-68
2023/06/01 09:10:52;;;;;;;8.43;1.80;;;;;;;41.43;8.86;98799.69;4962853;28;20385;-68
2023/06/01 09:13:35;;;;;;;7.07;2.05;;;;;;;41.99;9.12;98787.53;4993771;28;20052;-69
2023/06/01 09:16:01;;;;;;;12.13;1.83;;;;;;;42.38;9.13;98795.06;5010235;28;20050;-69
2023/06/01 09:18:27;;;;;;;7.55;1.70;;;;;;;41.68;8.89;98780.47;5008806;28;20203;-68
2023/06/01 09:20:56;;;;;;;5.70;1.60;;;;;;;41.73;9.29;98794.06;4993162;28;20057;-68
2023/06/01 09:23:26;;;;;;;6.53;1.87;;;;;;;41.01;9.40;98788.00;4991726;28;20049;-67
2023/06/01 09:26:09;;;;;;;3.88;1.50;;;;;;;41.07;9.71;98775.34;5009556;28;20287;-68
2023/06/01 09:28:56;;;;;;;6.15;1.30;;;;;;;40.82;9.45;98771.47;4993778;28;20081;-68
2023/06/01 09:31:42;;;;;;;5.57;1.77;;;;;;;40.85;9.54;98786.59;5010777;28;20042;-68
2023/06/01 09:34:26;;;;;;;7.30;1.70;;;;;;;41.55;8.92;98779.94;4994296;28;20046;-69
2023/06/01 09:36:54;;;;;;;6.85;1.98;;;;;;;41.16;9.58;98777.88;5014386;28;20053;-69
2023/06/01 09:39:22;;;;;;;7.72;2.30;;;;;;;39.98;9.81;98764.59;5031761;28;20045;-68
2023/06/01 09:41:55;;;;;;;4.45;1.45;;;;;;;37.22;10.72;98760.66;5015570;28;20045;-68
2023/06/01 09:44:30;;;;;;;6.68;1.67;;;;;;;37.16;11.28;98756.50;5015522;28;20042;-67
2023/06/01 09:46:58;;;;;;;5.85;1.42;;;;;;;37.85;10.77;98762.34;5030487;28;20053;-67
2023/06/01 09:49:31;;;;;;;7.20;1.52;;;;;;;39.80;10.16;98764.25;5015194;28;20045;-69
2023/06/01 09:52:03;;;;;;;6.15;1.40;;;;;;;40.03;9.77;98762.28;5032248;28;20164;-69
2023/06/01 09:54:39;;;;;;;5.05;1.38;;;;;;;40.94;9.22;98773.19;5028968;28;20051;-69
2023/06/01 09:57:07;;;;;;;6.95;1.50;;;;;;;41.22;8.76;98757.66;5012797;28;20102;-69
2023/06/01 09:59:44;;;;;;;6.18;1.42;;;;;;;41.40;8.84;98757.84;4996712;28;20196;-69
2023/06/01 10:02:15;;;;;;;5.13;1.45;;;;;;;40.92;9.19;98719.88;4996774;28;20122;-69
2023/06/01 10:04:46;;;;;;;4.45;1.63;;;;;;;38.60;9.44;98771.31;4980800;28;20103;-68
2023/06/01 10:07:13;;;;;;;2.75;1.38;;;;;;;36.70;10.42;98766.22;4997214;28;20450;-69
2023/06/01 10:09:41;;;;;;;4.13;1.80;;;;;;;38.56;10.09;98734.38;4981519;28;20465;-68
2023/06/01 10:12:08;;;;;;;7.15;1.80;;;;;;;38.84;10.08;98748.88;5013414;28;20607;-69
2023/06/01 10:14:38;;;;;;;6.32;1.70;;;;;;;39.14;10.01;98757.41;5031027;28;20107;-68
2023/06/01 10:17:04;;;;;;;6.43;1.50;;;;;;;40.12;9.02;98748.91;4998004;28;20037;-68
2023/06/01 10:19:30;;;;;;;7.82;1.65;;;;;;;37.96;10.47;98752.34;5017430;28;20483;-69
2023/06/01 10:21:59;;;;;;;4.05;1.50;;;;;;;35.50;12.26;98741.31;5050646;28;20135;-68
2023/06/01 10:24:26;;;;;;;13.53;2.03;;;;;;;37.11;11.57;98740.13;5017614;28;20041;-69
2023/06/01 10:26:58;;;;;;;8.45;2.15;;;;;;;38.11;10.55;98742.41;5017563;28;20044;-71
2023/06/01 10:29:24;;;;;;;4.57;1.52;;;;;;;39.30;9.99;98747.84;5017434;28;20044;-69
2023/06/01 10:31:51;;;;;;;5.70;1.67;;;;;;;39.71;9.01;98752.59;5017817;28;20511;-69
2023/06/01 10:34:44;;;;;;;4.65;1.45;;;;;;;39.17;9.35;98699.16;5034624;28;20135;-68
2023/06/01 10:37:12;;;;;;;4.82;1.65;;;;;;;39.47;9.58;98752.94;5000762;28;20048;-69
2023/06/01 10:39:38;;;;;;;5.65;1.55;;;;;;;39.11;9.53;98738.69;5033746;28;20050;-69
2023/06/01 10:42:24;;;;;;;6.47;1.75;;;;;;;39.87;9.43;98744.91;5001387;28;20468;-69
2023/06/01 10:44:50;;;;;;;4.68;1.45;;;;;;;39.97;8.90;98766.56;5010529;28;20079;-69
2023/06/01 10:47:15;;;;;;;5.03;1.50;;;;;;;38.78;9.28;98739.22;5017313;28;20072;-68
2023/06/01 10:49:51;;;;;;;3.95;1.35;;;;;;;38.64;9.79;98725.03;5033036;28;20049;-72
2023/06/01 10:52:25;;;;;;;5.93;1.55;;;;;;;36.02;10.90;98736.78;5033453;28;20131;-73
2023/06/01 10:54:56;;;;;;;6.53;1.45;;;;;;;37.48;11.30;98721.34;5050261;28;20135;-72
2023/06/01 10:57:25;;;;;;;6.03;1.50;;;;;;;39.00;10.43;98727.38;5051209;28;20037;-70
2023/06/01 11:00:14;;;;;;;10.70;2.10;;;;;;;38.82;9.77;98723.44;5067050;28;20495;-71
2023/06/01 11:02:50;;;;;;;7.95;1.77;;;;;;;38.62;10.39;98719.84;5050176;28;20045;-71
2023/06/01 11:05:47;;;;;;;9.63;1.48;;;;;;;36.32;11.22;98716.03;5033716;28;20052;-69
2023/06/01 11:08:22;;;;;;;12.63;1.65;;;;;;;33.78;12.18;98720.84;5033478;28;20044;-70
2023/06/01 11:10:55;;;;;;;4.25;1.40;;;;;;;33.02;13.43;98708.09;5050676;28;20476;-70
2023/06/01 11:13:29;;;;;;;3.40;1.88;;;;;;;33.31;13.93;98710.94;5050506;28;20052;-66
2023/06/01 11:16:13;;;;;;;5.00;1.40;;;;;;;32.74;14.16;98715.88;5033585;28;20048;-66
2023/06/01 11:18:58;;;;;;;3.05;1.60;;;;;;;33.02;14.49;98719.94;5049711;28;20094;-66
2023/06/01 11:21:39;;;;;;;4.80;1.48;;;;;;;33.07;13.65;98705.19;5034103;28;20155;-66
2023/06/01 11:24:11;;;;;;;10.15;1.50;;;;;;;32.02;14.63;98723.06;5049753;28;20041;-65
2023/06/01 11:26:40;;;;;;;4.95;1.70;;;;;;;31.90;15.03;98712.69;5000347;28;20488;-65
2023/06/01 11:29:12;;;;;;;2.40;1.38;;;;;;;31.79;15.03;98696.78;5033098;28;20033;-65
2023/06/01 11:31:41;;;;;;;6.55;1.60;;;;;;;32.12;15.24;98698.81;5050703;28;20419;-65
2023/06/01 11:34:08;;;;;;;12.70;1.80;;;;;;;32.34;15.60;98712.44;5033080;28;20044;-68
2023/06/01 11:36:43;;;;;;;7.57;1.48;;;;;;;32.08;15.65;98689.63;5050651;28;20072;-65
2023/06/01 11:39:23;;;;;;;9.75;1.58;;;;;;;32.10;15.82;98719.53;5033187;28;20472;-65
2023/06/01 11:41:50;;;;;;;;;;;;;;;32.25;14.90;98711.63;5050585;28;20045;-65